sensor_id;sensor_type;location;lat;lon;timestamp;pressure;altitude;pressure_sealevel;temperature;humidity
15382;BME280;7789;51.364;12.358;2022-09-16T00:02:47;99467.81;;;14.92;100.00
15382;BME280;7789;51.364;12.358;2022-09-16T00:07:59;99462.56;;;14.92;100.00
15382;BME280;7789;51.364;12.358;2022-09-16T00:13:06;99466.69;;;14.87;100.00
15382;BME280;7789;51.364;12.358;2022-09-16T00:18:16;99467.22;;;14.82;100.00
15382;BME280;7789;51.364;12.358;2022-09-16T00:23:22;99460.66;;;14.79;100.00
15382;BME280;7789;51.364;12.358;2022-09-16T00:28:38;99470.91;;;14.74;100.00
15382;BME280;7789;51.364;12.358;2022-09-16T00:33:55;99466.94;;;14.78;100.00
15382;BME280;7789;51.364;12.358;2022-09-16T00:38:59;99460.66;;;14.79;100.00
15382;BME280;7789;51.364;12.358;2022-09-16T00:44:52;99467.91;;;14.77;100.00
15382;BME280;7789;51.364;12.358;2022-09-16T00:50:28;99468.91;;;14.76;100.00
15382;BME280;7789;51.364;12.358;2022-09-16T00:55:42;99461.38;;;14.73;100.00
15382;BME280;7789;51.364;12.358;2022-09-16T01:00:51;99462.69;;;14.69;100.00
15382;BME280;7789;51.364;12.358;2022-09-16T01:06:02;99467.19;;;14.60;100.00
15382;BME280;7789;51.364;12.358;2022-09-16T01:11:20;99471.00;;;14.58;100.00
15382;BME280;7789;51.364;12.358;2022-09-16T01:16:40;99469.16;;;14.58;100.00
15382;BME280;7789;51.364;12.358;2022-09-16T01:22:10;99472.44;;;14.60;100.00
15382;BME280;7789;51.364;12.358;2022-09-16T01:27:43;99470.66;;;14.61;100.00
15382;BME280;7789;51.364;12.358;2022-09-16T01:33:17;99472.16;;;14.55;100.00
15382;BME280;7789;51.364;12.358;2022-09-16T01:38:38;99468.03;;;14.53;100.00
15382;BME280;7789;51.364;12.358;2022-09-16T01:43:55;99457.72;;;14.43;100.00
15382;BME280;7789;51.364;12.358;2022-09-16T01:49:17;99458.09;;;14.40;100.00
15382;BME280;7789;51.364;12.358;2022-09-16T01:54:36;99459.94;;;14.32;100.00
15382;BME280;7789;51.364;12.358;2022-09-16T02:00:03;99450.41;;;14.31;100.00
15382;BME280;7789;51.364;12.358;2022-09-16T02:05:30;99450.09;;;14.26;100.00
15382;BME280;7789;51.364;12.358;2022-09-16T02:10:51;99448.50;;;14.17;100.00
15382;BME280;7789;51.364;12.358;2022-09-16T02:15:59;99444.06;;;14.09;100.00
15382;BME280;7789;51.364;12.358;2022-09-16T02:21:11;99437.16;;;14.08;100.00
15382;BME280;7789;51.364;12.358;2022-09-16T02:26:25;99446.38;;;14.04;100.00
15382;BME280;7789;51.364;12.358;2022-09-16T02:31:32;99453.63;;;14.02;100.00
15382;BME280;7789;51.364;12.358;2022-09-16T02:37:04;99452.47;;;13.97;100.00
15382;BME280;7789;51.364;12.358;2022-09-16T02:42:19;99455.59;;;13.92;100.00
15382;BME280;7789;51.364;12.358;2022-09-16T02:47:29;99448.41;;;13.86;100.00
15382;BME280;7789;51.364;12.358;2022-09-16T02:52:43;99442.66;;;13.83;100.00
15382;BME280;7789;51.364;12.358;2022-09-16T02:57:55;99453.03;;;13.76;100.00
15382;BME280;7789;51.364;12.358;2022-09-16T03:03:11;99455.84;;;13.75;100.00
15382;BME280;7789;51.364;12.358;2022-09-16T03:08:27;99444.03;;;13.71;100.00
15382;BME280;7789;51.364;12.358;2022-09-16T03:13:42;99455.84;;;13.67;100.00
15382;BME280;7789;51.364;12.358;2022-09-16T03:19:01;99454.03;;;13.59;100.00
15382;BME280;7789;51.364;12.358;2022-09-16T03:24:44;99458.84;;;13.56;100.00
15382;BME280;7789;51.364;12.358;2022-09-16T03:30:00;99455.22;;;13.49;100.00
15382;BME280;7789;51.364;12.358;2022-09-16T03:35:10;99448.00;;;13.43;100.00
15382;BME280;7789;51.364;12.358;2022-09-16T03:40:32;99446.72;;;13.39;100.00
15382;BME280;7789;51.364;12.358;2022-09-16T03:46:02;99458.69;;;13.33;100.00
15382;BME280;7789;51.364;12.358;2022-09-16T03:51:13;99452.13;;;13.29;100.00
15382;BME280;7789;51.364;12.358;2022-09-16T03:56:38;99449.00;;;13.26;100.00
15382;BME280;7789;51.364;12.358;2022-09-16T04:02:11;99458.03;;;13.23;100.00
15382;BME280;7789;51.364;12.358;2022-09-16T04:07:35;99452.31;;;13.20;100.00
15382;BME280;7789;51.364;12.358;2022-09-16T04:12:56;99438.34;;;13.19;100.00
15382;BME280;7789;51.364;12.358;2022-09-16T04:18:03;99439.81;;;13.14;100.00
15382;BME280;7789;51.364;12.358;2022-09-16T04:23:10;99442.78;;;13.11;100.00
15382;BME280;7789;51.364;12.358;2022-09-16T04:28:30;99440.16;;;13.11;100.00
15382;BME280;7789;51.364;12.358;2022-09-16T04:33:53;99439.66;;;13.07;100.00
15382;BME280;7789;51.364;12.358;2022-09-16T04:39:04;99440.31;;;13.09;100.00
15382;BME280;7789;51.364;12.358;2022-09-16T04:44:18;99449.00;;;13.10;100.00
15382;BME280;7789;51.364;12.358;2022-09-16T04:49:32;99449.66;;;13.12;100.00
15382;BME280;7789;51.364;12.358;2022-09-16T04:54:38;99441.63;;;13.13;100.00
15382;BME280;7789;51.364;12.358;2022-09-16T04:59:54;99439.66;;;13.15;100.00
15382;BME280;7789;51.364;12.358;2022-09-16T05:05:07;99443.94;;;13.16;100.00
15382;BME280;7789;51.364;12.358;2022-09-16T05:10:18;99449.00;;;13.18;100.00
15382;BME280;7789;51.364;12.358;2022-09-16T05:15:33;99451.13;;;13.22;100.00
15382;BME280;7789;51.364;12.358;2022-09-16T05:20:38;99463.91;;;13.25;100.00
15382;BME280;7789;51.364;12.358;2022-09-16T05:25:49;99464.59;;;13.35;100.00
15382;BME280;7789;51.364;12.358;2022-09-16T05:31:07;99460.31;;;13.50;100.00
15382;BME280;7789;51.364;12.358;2022-09-16T05:36:15;99449.63;;;13.60;100.00
15382;BME280;7789;51.364;12.358;2022-09-16T05:41:25;99454.19;;;13.74;100.00
15382;BME280;7789;51.364;12.358;2022-09-16T05:46:41;99459.56;;;13.88;100.00
15382;BME280;7789;51.364;12.358;2022-09-16T05:51:54;99453.13;;;14.07;100.00
15382;BME280;7789;51.364;12.358;2022-09-16T05:57:05;99450.09;;;14.26;100.00
15382;BME280;7789;51.364;12.358;2022-09-16T06:02:14;99454.88;;;14.53;100.00
15382;BME280;7789;51.364;12.358;2022-09-16T06:07:28;99451.06;;;14.85;98.43
15382;BME280;7789;51.364;12.358;2022-09-16T06:12:34;99456.28;;;15.38;96.52
15382;BME280;7789;51.364;12.358;2022-09-16T06:17:55;99457.34;;;15.29;95.49
15382;BME280;7789;51.364;12.358;2022-09-16T06:23:19;99453.31;;;15.41;94.93
15382;BME280;7789;51.364;12.358;2022-09-16T06:28:58;99454.25;;;17.48;85.18
15382;BME280;7789;51.364;12.358;2022-09-16T06:34:18;99450.31;;;17.23;84.47
15382;BME280;7789;51.364;12.358;2022-09-16T06:39:35;99451.97;;;17.03;84.93
15382;BME280;7789;51.364;12.358;2022-09-16T06:44:40;99456.75;;;17.14;84.23
15382;BME280;7789;51.364;12.358;2022-09-16T06:50:01;99446.09;;;17.49;83.01
15382;BME280;7789;51.364;12.358;2022-09-16T06:55:10;99446.31;;;17.48;83.04
15382;BME280;7789;51.364;12.358;2022-09-16T07:00:16;99448.66;;;17.36;81.68
15382;BME280;7789;51.364;12.358;2022-09-16T07:05:27;99441.66;;;17.29;80.03
15382;BME280;7789;51.364;12.358;2022-09-16T07:16:08;99444.03;;;17.24;80.66
15382;BME280;7789;51.364;12.358;2022-09-16T07:21:30;99436.78;;;17.32;79.96
15382;BME280;7789;51.364;12.358;2022-09-16T07:26:42;99446.38;;;17.61;79.19
15382;BME280;7789;51.364;12.358;2022-09-16T07:31:52;99439.00;;;17.77;79.16
15382;BME280;7789;51.364;12.358;2022-09-16T07:37:31;99445.84;;;17.99;77.97
15382;BME280;7789;51.364;12.358;2022-09-16T07:42:35;99455.88;;;17.76;77.72
15382;BME280;7789;51.364;12.358;2022-09-16T07:47:47;99462.34;;;17.74;77.61
15382;BME280;7789;51.364;12.358;2022-09-16T07:52:55;99466.41;;;17.70;77.65
15382;BME280;7789;51.364;12.358;2022-09-16T07:58:00;99470.00;;;17.62;77.82
15382;BME280;7789;51.364;12.358;2022-09-16T08:03:08;99473.59;;;17.55;77.84
15382;BME280;7789;51.364;12.358;2022-09-16T08:08:18;99465.09;;;17.59;78.63
15382;BME280;7789;51.364;12.358;2022-09-16T08:13:25;99462.34;;;17.74;77.37
15382;BME280;7789;51.364;12.358;2022-09-16T08:18:34;99470.06;;;17.69;77.14
15382;BME280;7789;51.364;12.358;2022-09-16T08:23:50;99461.72;;;17.72;75.10
15382;BME280;7789;51.364;12.358;2022-09-16T08:29:02;99464.53;;;17.91;76.04
15382;BME280;7789;51.364;12.358;2022-09-16T08:34:12;99455.47;;;18.13;74.92
15382;BME280;7789;51.364;12.358;2022-09-16T08:39:31;99458.50;;;18.44;73.56
15382;BME280;7789;51.364;12.358;2022-09-16T08:44:45;99443.69;;;18.50;71.94
15382;BME280;7789;51.364;12.358;2022-09-16T08:50:00;99456.75;;;18.24;72.81
15382;BME280;7789;51.364;12.358;2022-09-16T08:55:12;99457.00;;;18.29;72.89
15382;BME280;7789;51.364;12.358;2022-09-16T09:00:19;99452.66;;;18.62;71.33
15382;BME280;7789;51.364;12.358;2022-09-16T09:05:35;99446.19;;;18.71;68.99
15382;BME280;7789;51.364;12.358;2022-09-16T09:11:08;99442.50;;;18.65;68.89
15382;BME280;7789;51.364;12.358;2022-09-16T09:16:28;99440.44;;;18.61;70.06
15382;BME280;7789;51.364;12.358;2022-09-16T09:22:07;99444.69;;;18.55;69.55
15382;BME280;7789;51.364;12.358;2022-09-16T09:28:11;99461.53;;;18.35;70.10
15382;BME280;7789;51.364;12.358;2022-09-16T09:33:29;99459.50;;;18.03;72.65
15382;BME280;7789;51.364;12.358;2022-09-16T09:45:03;99457.66;;;18.31;72.57
15382;BME280;7789;51.364;12.358;2022-09-16T09:50:27;99446.69;;;18.40;72.59
15382;BME280;7789;51.364;12.358;2022-09-16T09:55:58;99445.06;;;18.39;72.03
15382;BME280;7789;51.364;12.358;2022-09-16T10:01:36;99423.50;;;18.49;74.72
15382;BME280;7789;51.364;12.358;2022-09-16T10:06:47;99418.47;;;18.67;73.75
15382;BME280;7789;51.364;12.358;2022-09-16T10:12:11;99424.41;;;18.81;70.91
15382;BME280;7789;51.364;12.358;2022-09-16T10:17:18;99419.34;;;18.99;71.21
15382;BME280;7789;51.364;12.358;2022-09-16T10:22:33;99407.72;;;19.13;69.67
15382;BME280;7789;51.364;12.358;2022-09-16T10:27:54;99410.81;;;19.30;65.79
15382;BME280;7789;51.364;12.358;2022-09-16T10:33:06;99401.44;;;19.53;67.26
15382;BME280;7789;51.364;12.358;2022-09-16T10:38:18;99401.38;;;19.79;67.53
15382;BME280;7789;51.364;12.358;2022-09-16T10:43:30;99399.28;;;20.07;64.45
15382;BME280;7789;51.364;12.358;2022-09-16T10:48:44;99389.00;;;20.24;61.94
15382;BME280;7789;51.364;12.358;2022-09-16T10:53:57;99395.59;;;20.15;61.08
15382;BME280;7789;51.364;12.358;2022-09-16T10:59:15;99389.38;;;20.34;59.87
15382;BME280;7789;51.364;12.358;2022-09-16T11:04:54;99390.31;;;20.52;56.96
15382;BME280;7789;51.364;12.358;2022-09-16T11:10:33;99387.25;;;20.49;57.49
15382;BME280;7789;51.364;12.358;2022-09-16T11:16:05;99394.81;;;20.45;56.78
15382;BME280;7789;51.364;12.358;2022-09-16T11:21:50;99381.88;;;20.62;56.08
15382;BME280;7789;51.364;12.358;2022-09-16T11:27:07;99383.75;;;20.55;55.87
15382;BME280;7789;51.364;12.358;2022-09-16T11:32:26;99376.25;;;20.45;54.38
15382;BME280;7789;51.364;12.358;2022-09-16T11:38:04;99386.44;;;20.48;56.47
15382;BME280;7789;51.364;12.358;2022-09-16T11:43:40;99386.72;;;20.34;56.16
15382;BME280;7789;51.364;12.358;2022-09-16T11:49:13;99399.03;;;20.22;54.38
15382;BME280;7789;51.364;12.358;2022-09-16T11:54:57;99393.19;;;19.94;55.01
15382;BME280;7789;51.364;12.358;2022-09-16T12:00:12;99394.41;;;19.85;55.64
15382;BME280;7789;51.364;12.358;2022-09-16T12:05:31;99395.06;;;19.74;55.49
15382;BME280;7789;51.364;12.358;2022-09-16T12:10:46;99386.31;;;19.54;56.19
15382;BME280;7789;51.364;12.358;2022-09-16T12:15:58;99386.75;;;19.38;56.56
15382;BME280;7789;51.364;12.358;2022-09-16T12:21:15;99387.56;;;19.25;57.16
15382;BME280;7789;51.364;12.358;2022-09-16T12:26:35;99381.25;;;19.20;54.74
15382;BME280;7789;51.364;12.358;2022-09-16T12:32:03;99375.72;;;19.08;55.64
15382;BME280;7789;51.364;12.358;2022-09-16T12:37:21;99370.66;;;19.07;55.49
15382;BME280;7789;51.364;12.358;2022-09-16T12:48:13;99363.91;;;18.98;56.21
15382;BME280;7789;51.364;12.358;2022-09-16T12:53:48;99361.25;;;18.91;56.23
15382;BME280;7789;51.364;12.358;2022-09-16T13:04:53;99349.44;;;18.94;55.66
15382;BME280;7789;51.364;12.358;2022-09-16T13:10:06;99340.47;;;18.95;54.82
15382;BME280;7789;51.364;12.358;2022-09-16T13:15:55;99333.31;;;18.95;56.10
15382;BME280;7789;51.364;12.358;2022-09-16T13:21:21;99338.84;;;19.00;56.17
15382;BME280;7789;51.364;12.358;2022-09-16T13:26:39;99337.81;;;19.01;57.11
15382;BME280;7789;51.364;12.358;2022-09-16T13:31:47;99335.78;;;18.97;55.81
15382;BME280;7789;51.364;12.358;2022-09-16T13:37:14;99329.66;;;19.03;55.80
15382;BME280;7789;51.364;12.358;2022-09-16T13:42:45;99325.22;;;19.16;56.71
15382;BME280;7789;51.364;12.358;2022-09-16T13:47:56;99319.50;;;19.19;55.66
15382;BME280;7789;51.364;12.358;2022-09-16T13:53:18;99319.09;;;19.22;55.33
15382;BME280;7789;51.364;12.358;2022-09-16T13:58:36;99325.16;;;19.29;54.67
15382;BME280;7789;51.364;12.358;2022-09-16T14:03:52;99309.88;;;19.38;54.64
15382;BME280;7789;51.364;12.358;2022-09-16T14:09:21;99308.44;;;19.42;55.79
15382;BME280;7789;51.364;12.358;2022-09-16T14:14:56;99309.06;;;19.31;55.45
15382;BME280;7789;51.364;12.358;2022-09-16T14:20:09;99297.06;;;19.15;55.79
15382;BME280;7789;51.364;12.358;2022-09-16T14:25:31;99290.53;;;19.31;57.43
15382;BME280;7789;51.364;12.358;2022-09-16T14:30:51;99281.31;;;19.40;56.20
15382;BME280;7789;51.364;12.358;2022-09-16T14:36:11;99279.94;;;19.18;53.48
15382;BME280;7789;51.364;12.358;2022-09-16T14:41:25;99279.91;;;19.05;54.02
15382;BME280;7789;51.364;12.358;2022-09-16T14:46:41;99272.81;;;18.92;52.68
15382;BME280;7789;51.364;12.358;2022-09-16T14:51:48;99274.66;;;18.79;52.68
15382;BME280;7789;51.364;12.358;2022-09-16T14:57:05;99284.22;;;18.73;53.00
15382;BME280;7789;51.364;12.358;2022-09-16T15:02:15;99282.41;;;18.68;53.11
15382;BME280;7789;51.364;12.358;2022-09-16T15:07:29;99271.38;;;18.58;52.54
15382;BME280;7789;51.364;12.358;2022-09-16T15:13:03;99262.41;;;18.46;52.32
15382;BME280;7789;51.364;12.358;2022-09-16T15:18:11;99268.53;;;18.40;53.12
15382;BME280;7789;51.364;12.358;2022-09-16T15:23:19;99259.78;;;18.33;53.68
15382;BME280;7789;51.364;12.358;2022-09-16T15:28:30;99266.44;;;18.22;53.49
15382;BME280;7789;51.364;12.358;2022-09-16T15:33:50;99268.47;;;18.14;53.83
15382;BME280;7789;51.364;12.358;2022-09-16T15:39:00;99257.25;;;18.05;54.14
15382;BME280;7789;51.364;12.358;2022-09-16T15:44:12;99264.53;;;18.03;54.21
15382;BME280;7789;51.364;12.358;2022-09-16T15:49:25;99262.09;;;17.95;53.41
15382;BME280;7789;51.364;12.358;2022-09-16T15:54:42;99248.84;;;17.89;50.25
15382;BME280;7789;51.364;12.358;2022-09-16T16:00:04;99261.25;;;17.82;50.19
15382;BME280;7789;51.364;12.358;2022-09-16T16:05:16;99247.38;;;17.73;49.44
15382;BME280;7789;51.364;12.358;2022-09-16T16:10:26;99253.06;;;17.70;49.32
15382;BME280;7789;51.364;12.358;2022-09-16T16:15:37;99260.97;;;17.64;48.56
15382;BME280;7789;51.364;12.358;2022-09-16T16:20:47;99254.66;;;17.58;49.48
15382;BME280;7789;51.364;12.358;2022-09-16T16:25:54;99254.22;;;17.55;50.36
15382;BME280;7789;51.364;12.358;2022-09-16T16:31:13;99250.34;;;17.51;50.33
15382;BME280;7789;51.364;12.358;2022-09-16T16:36:18;99263.72;;;17.43;51.40
15382;BME280;7789;51.364;12.358;2022-09-16T16:41:26;99260.84;;;17.38;51.28
15382;BME280;7789;51.364;12.358;2022-09-16T16:46:39;99259.75;;;17.32;52.41
15382;BME280;7789;51.364;12.358;2022-09-16T16:51:47;99259.16;;;17.30;52.44
15382;BME280;7789;51.364;12.358;2022-09-16T16:56:54;99272.34;;;17.30;53.30
15382;BME280;7789;51.364;12.358;2022-09-16T17:02:18;99265.66;;;17.28;52.68
15382;BME280;7789;51.364;12.358;2022-09-16T17:07:23;99272.75;;;17.27;54.37
15382;BME280;7789;51.364;12.358;2022-09-16T17:12:30;99263.00;;;17.28;53.67
15382;BME280;7789;51.364;12.358;2022-09-16T17:17:38;99273.81;;;17.33;53.74
15382;BME280;7789;51.364;12.358;2022-09-16T17:22:47;99276.06;;;17.36;54.67
15382;BME280;7789;51.364;12.358;2022-09-16T17:27:56;99275.56;;;17.26;54.37
15382;BME280;7789;51.364;12.358;2022-09-16T17:33:04;99279.00;;;17.20;54.08
15382;BME280;7789;51.364;12.358;2022-09-16T17:38:14;99284.25;;;17.13;54.12
15382;BME280;7789;51.364;12.358;2022-09-16T17:44:02;99298.63;;;17.04;54.75
15382;BME280;7789;51.364;12.358;2022-09-16T17:49:13;99297.84;;;16.83;53.47
15382;BME280;7789;51.364;12.358;2022-09-16T17:54:22;99293.63;;;16.68;54.05
15382;BME280;7789;51.364;12.358;2022-09-16T17:59:32;99296.19;;;16.55;53.58
15382;BME280;7789;51.364;12.358;2022-09-16T18:04:40;99301.50;;;16.40;51.80
15382;BME280;7789;51.364;12.358;2022-09-16T18:09:52;99303.34;;;16.25;52.42
15382;BME280;7789;51.364;12.358;2022-09-16T18:15:00;99323.13;;;16.15;52.58
15382;BME280;7789;51.364;12.358;2022-09-16T18:20:09;99324.25;;;16.06;52.75
15382;BME280;7789;51.364;12.358;2022-09-16T18:25:23;99321.91;;;15.96;53.53
15382;BME280;7789;51.364;12.358;2022-09-16T18:30:27;99321.38;;;15.86;54.27
15382;BME280;7789;51.364;12.358;2022-09-16T18:35:42;99326.94;;;15.77;55.24
15382;BME280;7789;51.364;12.358;2022-09-16T18:40:47;99327.22;;;15.67;55.86
15382;BME280;7789;51.364;12.358;2022-09-16T18:46:11;99328.13;;;15.60;56.02
15382;BME280;7789;51.364;12.358;2022-09-16T18:51:33;99338.56;;;15.53;58.37
15382;BME280;7789;51.364;12.358;2022-09-16T18:56:41;99334.41;;;15.44;57.07
15382;BME280;7789;51.364;12.358;2022-09-16T19:01:51;99333.78;;;15.42;59.02
15382;BME280;7789;51.364;12.358;2022-09-16T19:07:08;99321.25;;;15.44;59.30
15382;BME280;7789;51.364;12.358;2022-09-16T19:12:18;99326.94;;;15.48;58.63
15382;BME280;7789;51.364;12.358;2022-09-16T19:17:40;99333.78;;;15.42;59.09
15382;BME280;7789;51.364;12.358;2022-09-16T19:22:54;99329.84;;;15.38;59.35
15382;BME280;7789;51.364;12.358;2022-09-16T19:28:04;99336.41;;;15.42;59.26
15382;BME280;7789;51.364;12.358;2022-09-16T19:33:14;99323.03;;;15.44;59.11
15382;BME280;7789;51.364;12.358;2022-09-16T19:38:26;99332.16;;;15.41;59.51
15382;BME280;7789;51.364;12.358;2022-09-16T19:43:45;99340.38;;;15.38;59.66
15382;BME280;7789;51.364;12.358;2022-09-16T19:48:52;99329.97;;;15.22;60.19
15382;BME280;7789;51.364;12.358;2022-09-16T19:54:04;99326.34;;;15.09;60.81
15382;BME280;7789;51.364;12.358;2022-09-16T19:59:13;99331.50;;;15.02;61.11
15382;BME280;7789;51.364;12.358;2022-09-16T20:04:22;99336.84;;;14.94;61.70
15382;BME280;7789;51.364;12.358;2022-09-16T20:09:40;99339.84;;;14.91;62.37
15382;BME280;7789;51.364;12.358;2022-09-16T20:15:07;99332.84;;;14.84;62.54
15382;BME280;7789;51.364;12.358;2022-09-16T20:20:31;99328.63;;;14.75;62.82
15382;BME280;7789;51.364;12.358;2022-09-16T20:25:41;99335.59;;;14.68;63.25
15382;BME280;7789;51.364;12.358;2022-09-16T20:30:46;99335.84;;;14.59;63.04
15382;BME280;7789;51.364;12.358;2022-09-16T20:36:03;99336.38;;;14.54;64.02
15382;BME280;7789;51.364;12.358;2022-09-16T20:41:16;99335.44;;;14.47;64.34
15382;BME280;7789;51.364;12.358;2022-09-16T20:46:29;99335.00;;;14.36;64.92
15382;BME280;7789;51.364;12.358;2022-09-16T20:51:41;99335.06;;;14.28;65.28
15382;BME280;7789;51.364;12.358;2022-09-16T20:57:00;99340.19;;;14.21;65.38
15382;BME280;7789;51.364;12.358;2022-09-16T21:02:08;99342.66;;;14.15;65.85
15382;BME280;7789;51.364;12.358;2022-09-16T21:07:17;99349.25;;;14.19;66.26
15382;BME280;7789;51.364;12.358;2022-09-16T21:12:26;99331.69;;;14.19;66.03
15382;BME280;7789;51.364;12.358;2022-09-16T21:17:39;99340.72;;;14.17;66.51
15382;BME280;7789;51.364;12.358;2022-09-16T21:22:46;99337.41;;;14.15;66.82
15382;BME280;7789;51.364;12.358;2022-09-16T21:27:58;99335.78;;;14.14;67.05
15382;BME280;7789;51.364;12.358;2022-09-16T21:33:06;99348.78;;;14.07;67.56
15382;BME280;7789;51.364;12.358;2022-09-16T21:38:17;99345.22;;;14.00;68.00
15382;BME280;7789;51.364;12.358;2022-09-16T21:43:31;99343.75;;;13.98;68.25
15382;BME280;7789;51.364;12.358;2022-09-16T21:48:38;99339.78;;;14.02;68.04
15382;BME280;7789;51.364;12.358;2022-09-16T21:53:45;99345.69;;;14.04;68.26
15382;BME280;7789;51.364;12.358;2022-09-16T21:59:01;99344.72;;;14.05;68.23
15382;BME280;7789;51.364;12.358;2022-09-16T22:04:11;99345.03;;;14.02;68.11
15382;BME280;7789;51.364;12.358;2022-09-16T22:09:20;99336.16;;;14.03;68.48
15382;BME280;7789;51.364;12.358;2022-09-16T22:14:29;99336.47;;;14.08;68.40
15382;BME280;7789;51.364;12.358;2022-09-16T22:19:40;99331.22;;;14.08;68.48
15382;BME280;7789;51.364;12.358;2022-09-16T22:24:53;99335.66;;;14.07;68.63
15382;BME280;7789;51.364;12.358;2022-09-16T22:30:00;99334.38;;;14.03;68.96
15382;BME280;7789;51.364;12.358;2022-09-16T22:35:07;99329.91;;;14.04;69.30
15382;BME280;7789;51.364;12.358;2022-09-16T22:40:16;99327.00;;;13.99;69.66
15382;BME280;7789;51.364;12.358;2022-09-16T22:45:22;99337.34;;;14.00;69.73
15382;BME280;7789;51.364;12.358;2022-09-16T22:50:35;99326.81;;;14.00;69.93
15382;BME280;7789;51.364;12.358;2022-09-16T22:55:46;99331.72;;;14.03;70.23
15382;BME280;7789;51.364;12.358;2022-09-16T23:01:11;99318.94;;;14.00;70.47
15382;BME280;7789;51.364;12.358;2022-09-16T23:06:26;99327.19;;;13.97;71.07
15382;BME280;7789;51.364;12.358;2022-09-16T23:11:39;99329.13;;;13.95;71.35
15382;BME280;7789;51.364;12.358;2022-09-16T23:16:49;99325.06;;;13.93;71.52
15382;BME280;7789;51.364;12.358;2022-09-16T23:21:56;99325.19;;;13.99;71.45
15382;BME280;7789;51.364;12.358;2022-09-16T23:27:06;99314.19;;;13.96;71.73
15382;BME280;7789;51.364;12.358;2022-09-16T23:32:19;99319.50;;;13.88;72.25
15382;BME280;7789;51.364;12.358;2022-09-16T23:37:28;99317.41;;;13.75;72.93
15382;BME280;7789;51.364;12.358;2022-09-16T23:42:36;99306.59;;;13.70;73.08
15382;BME280;7789;51.364;12.358;2022-09-16T23:47:43;99308.59;;;13.68;74.10
15382;BME280;7789;51.364;12.358;2022-09-16T23:52:52;99315.19;;;13.56;73.84
15382;BME280;7789;51.364;12.358;2022-09-16T23:58:00;99308.31;;;13.55;74.12
